Terminal Aerodrome Forecast
Issued by NWS

Home | Current Version | Previous Version | Graphics & Text | Print | Product List | Glossary On
Versions: 1 2 3 4 5 6 7 8 9 10 11 12 13 14 15 16 17 18
000
FTUS43 KMPX 262300
TAFRNH
TAF
KRNH 262331Z 2700/2724 34009KT P6SM SCT024 BKN060
      TEMPO 2700/2703 6SM -SN BKN024
     FM270300 33010KT P6SM SCT050 BKN080
     FM270600 33007KT P6SM SKC
     FM271500 32004KT P6SM FEW200
     FM272200 VRB03KT P6SM SCT150=

USA.gov is the U.S. government's official web portal to all federal, state and local government web resources and services.